• Join FlightAware (Why Join?)
  • Login
  • US Flag 
04:56AM EDT


 

Airport Tracker/Info


-or-


 

Live Flight TrackerFlight Track Log ✈ KAP720 ✈ 07-May-2013 ✈ KALB - KOGS

Flight Track Log - Related Links

Times and Time Zones

All times are in EDT time to prevent confusion due to time zone crossing. See the KAP720 flight status page for this flight to view local times or setup timezone preferences in your user account.

Time Position Orientation Groundspeed Altitude Reporting Facility
EDT Latitude Longitude Course Direction KTS MPH feet Rate Location/Type
06:32PM 42.7214 -73.8136 314° West 105 121 1,300  Level Boston Center
06:33PM 42.7439 -73.8453 314° West 130 150 1,900 540 Climbing Boston Center
06:34PM 42.7728 -73.8683 330° Northwest 129 148 2,500 540 Climbing Boston Center
06:35PM 42.8058 -73.8975 327° Northwest 137 158 3,100 540 Climbing Boston Center
06:36PM 42.8367 -73.9236 328° Northwest 138 159 3,600 540 Climbing Boston Center
06:37PM 42.8719 -73.9472 334° Northwest 140 161 4,200 600 Climbing Boston Center
06:38PM 42.9089 -73.9794 327° Northwest 143 165 4,900 540 Climbing Boston Center
06:39PM 42.9461 -74.0086 330° Northwest 150 173 5,300 480 Climbing Boston Center
06:41PM 42.9831 -74.0408 327° Northwest 154 177 5,900 540 Climbing Boston Center
06:42PM 43.0161 -74.0672 330° Northwest 152 175 6,400 480 Climbing Boston Center
06:43PM 43.0511 -74.0967 328° Northwest 152 175 6,900 420 Climbing Boston Center
06:44PM 43.0903 -74.1289 329° Northwest 156 180 7,300 480 Climbing Boston Center
06:44PM 43.1211 -74.1525 331° Northwest 160 184 7,800 480 Climbing Boston Center
06:45PM 43.1583 -74.1819 330° Northwest 154 177 8,200 360 Climbing Boston Center
06:46PM 43.1953 -74.2144 327° Northwest 160 184 8,600 120 Climbing Boston Center
06:47PM 43.2386 -74.2469 331° Northwest 171 197 8,500 -60 Descending Boston Center
06:48PM 43.2794 -74.2853 326° Northwest 176 203 8,500  Level Boston Center
06:49PM 43.3208 -74.3181 330° Northwest 176 203 8,500  Level Boston Center
06:50PM 43.3619 -74.3506 330° Northwest 171 197 8,500  Level Boston Center
06:51PM 43.4031 -74.3861 328° Northwest 171 197 8,500  Level Boston Center
06:52PM 43.4442 -74.4161 332° Northwest 165 190 8,500  Level Boston Center
06:53PM 43.4811 -74.4489 327° Northwest 165 190 8,500  Level Boston Center
06:54PM 43.5200 -74.4817 329° Northwest 165 190 8,500  Level Boston Center
06:55PM 43.5569 -74.5114 330° Northwest 165 190 8,500  Level Boston Center
06:56PM 43.5981 -74.5444 330° Northwest 165 190 8,500  Level Boston Center
06:57PM 43.6372 -74.5744 331° Northwest 165 190 8,500 -60 Level Boston Center
06:58PM 43.6761 -74.6103 326° Northwest 165 190 8,400 -60 Descending Boston Center
06:59PM 43.7150 -74.6406 331° Northwest 165 190 8,400  Level Boston Center
07:00PM 43.7561 -74.6764 328° Northwest 165 190 8,500  Climbing Boston Center
07:01PM 43.7972 -74.7097 330° Northwest 165 190 8,400 -60 Descending Boston Center
07:02PM 43.8381 -74.7458 327° Northwest 165 190 8,400  Level Boston Center
07:03PM 43.8811 -74.7819 329° Northwest 165 190 8,400 -180 Level Boston Center
07:04PM 43.9219 -74.8181 328° Northwest 165 190 8,100 -360 Descending Boston Center
07:05PM 43.9692 -74.8547 331° Northwest 172 198 7,700 -420 Descending Boston Center
07:06PM 44.0142 -74.8939 328° Northwest 185 213 7,300 -360 Descending Boston Center
07:07PM 44.0594 -74.9306 330° Northwest 185 213 7,000 -300 Descending Boston Center
07:08PM 44.1022 -74.9669 329° Northwest 185 213 6,800 -300 Descending Boston Center
07:09PM 44.1453 -75.0036 329° Northwest 185 213 6,500 -360 Descending Boston Center
07:10PM 44.1881 -75.0400 329° Northwest 185 213 6,100 -300 Descending Boston Center
07:11PM 44.2311 -75.0767 329° Northwest 185 213 5,900 -360 Descending Boston Center
07:12PM 44.2742 -75.1136 328° Northwest 185 213 5,400 -480 Descending Boston Center
07:13PM 44.3192 -75.1475 332° Northwest 185 213 5,000 -480 Descending Boston Center
07:14PM 44.3642 -75.1786 334° Northwest 179 206 4,500 -540 Descending Boston Center
07:15PM 44.4072 -75.2097 333° Northwest 179 206 4,000 -420 Descending Boston Center
07:16PM 44.4481 -75.2406 332° Northwest 179 206 3,700 -420 Descending Boston Center
07:17PM 44.4911 -75.2689 335° Northwest 174 200 3,200 -540 Descending Boston Center